WetterOnline ( https://www.wetteronline.de )

Wetter aktuell Schönborn

Aktuelles Wetter: Kirchhain (100m)

6-stündlich | Neueste Meldungen
Ortszeit Temperatur Wetter
Fr, 07.05. 20:00 7.4° C wolkenlos
Fr, 07.05. 14:00 6.6° C bewölkt
Fr, 07.05. 8:00 6.2° C leichter Regen
Fr, 07.05. 2:00 6.3° C leichter Regen
Do, 06.05. 20:00 9.2° C Sprühregen
Do, 06.05. 14:00 11.7° C bewölkt
Do, 06.05. 8:00 6.1° C fast wolkenlos
Do, 06.05. 2:00 5.6° C leicht bewölkt
Ortszeit Temperatur Wetter
Sa, 08.05. 1:00 4.4° C wolkig
Sa, 08.05. 0:50 4.4° C wolkig
Sa, 08.05. 0:40 4.5° C leicht bewölkt
Sa, 08.05. 0:30 4.7° C wolkig
Sa, 08.05. 0:20 4.7° C wolkig
Sa, 08.05. 0:10 4.7° C bewölkt
Sa, 08.05. 0:00 4.7° C bedeckt
Fr, 07.05. 23:30 4.6° C bedeckt
Fr, 07.05. 23:00 4.4° C bedeckt
Fr, 07.05. 22:30 4.9° C bewölkt
Fr, 07.05. 22:00 5.0° C bewölkt
Ortszeit Relative Feuchte Sichtweite
Fr, 07.05. 20:00 70% 65 km
Fr, 07.05. 14:00 78% >70 km
Fr, 07.05. 8:00 93% 19 km
Fr, 07.05. 2:00 92% 35 km
Do, 06.05. 20:00 72% 50 km
Do, 06.05. 14:00 50% 65 km
Do, 06.05. 8:00 73% 45 km
Do, 06.05. 2:00 73% 55 km
Ortszeit Relative Feuchte Sichtweite
Sa, 08.05. 1:00 84% 65 km
Sa, 08.05. 0:50 84% -
Sa, 08.05. 0:40 83% -
Sa, 08.05. 0:30 83% 65 km
Sa, 08.05. 0:20 83% -
Sa, 08.05. 0:10 83% -
Sa, 08.05. 0:00 84% 55 km
Fr, 07.05. 23:30 86% 55 km
Fr, 07.05. 23:00 88% 45 km
Fr, 07.05. 22:30 84% 55 km
Fr, 07.05. 22:00 84% 65 km
Ortszeit Niederschlagsmenge Niederschlagsart
Fr, 07.05. 20:00 3 l/m2 in 12 Std. Regen
Fr, 07.05. 14:00 3 l/m2 in 6 Std. Regen
Fr, 07.05. 8:00 1 l/m2 in 12 Std. Regen
Fr, 07.05. 2:00 1 l/m2 in 6 Std. Regen
Do, 06.05. 20:00 0.1 l/m2 in 12 Std. Regen
Do, 06.05. 14:00 0.1 l/m2 in 6 Std. Regen
Do, 06.05. 8:00 0.0 l/m2 in 12 Std. -
Do, 06.05. 2:00 0.0 l/m2 in 6 Std. -
Ortszeit Niederschlagsmenge Niederschlagsart
Sa, 08.05. 1:00 0.0 l/m2 in 1 Std. -
Sa, 08.05. 0:50 keine Meldung -
Sa, 08.05. 0:40 keine Meldung -
Sa, 08.05. 0:30 0.0 l/m2 in 1 Std. -
Sa, 08.05. 0:20 keine Meldung -
Sa, 08.05. 0:10 keine Meldung -
Sa, 08.05. 0:00 0.0 l/m2 in 1 Std. -
Fr, 07.05. 23:30 0.0 l/m2 in 1 Std. -
Fr, 07.05. 23:00 0.0 l/m2 in 1 Std. -
Fr, 07.05. 22:30 0.0 l/m2 in 1 Std. -
Fr, 07.05. 22:00 0.0 l/m2 in 1 Std. -
Ortszeit Stärke Spitze Richtung
km/h Bft. km/h Grad Sektor
Fr, 07.05. 20:00 14 3 58 280° W
Fr, 07.05. 14:00 22 4 50 280° W
Fr, 07.05. 8:00 11 2 18 230° SW
Fr, 07.05. 2:00 0 0 25 - -
Do, 06.05. 20:00 4 1 47 150° SO
Do, 06.05. 14:00 25 4 47 220° SW
Do, 06.05. 8:00 22 4 36 220° SW
Do, 06.05. 2:00 15 3 44 230° SW
Ortszeit Stärke Spitze Richtung
km/h Bft. km/h Grad Sektor
Sa, 08.05. 1:00 11 2 14 200° S
Sa, 08.05. 0:50 11 2 - 200° S
Sa, 08.05. 0:40 11 2 - 200° S
Sa, 08.05. 0:30 11 2 14 200° S
Sa, 08.05. 0:20 11 2 - 200° S
Sa, 08.05. 0:10 7 2 - 200° S
Sa, 08.05. 0:00 9 2 13 210° SW
Fr, 07.05. 23:30 9 2 11 190° S
Fr, 07.05. 23:00 4 1 11 220° SW
Fr, 07.05. 22:30 6 1 11 250° W
Fr, 07.05. 22:00 7 2 11 300° NW
Ortszeit Untergrenze Bedeckung Gattung
total tief tief mittel hoch
Fr, 07.05. 20:00 - 0/8 0/8 - - -
Fr, 07.05. 14:00 540 m 7/8 8/8 - - -
Fr, 07.05. 8:00 1080 m 7/8 7/8 - - -
Fr, 07.05. 2:00 1350 m 8/8 8/8 - - -
Do, 06.05. 20:00 1290 m 8/8 8/8 - - -
Do, 06.05. 14:00 1800 m 7/8 7/8 - - -
Do, 06.05. 8:00 7800 m 2/8 0/8 - - -
Do, 06.05. 2:00 5100 m 2/8 2/8 - - -
Ortszeit Bedeckungsgrad in Achtel und Wolkenuntergrenze
Sa, 08.05. 1:00 5(2400m)
Sa, 08.05. 0:50 5(2400m)
Sa, 08.05. 0:40 4(2400m)
Sa, 08.05. 0:30 6(2400m)
Sa, 08.05. 0:20 6(2400m)
Sa, 08.05. 0:10 1(1440m) 1(1500m) 7(2400m)
Sa, 08.05. 0:00 2(1800m) 7(2400m) 8(2700m)
Fr, 07.05. 23:30 8(2400m) 8(2400m)
Fr, 07.05. 23:00 8(2400m)
Fr, 07.05. 22:30 1(1500m) 7(2400m)
Fr, 07.05. 22:00 1(1440m) 7(2100m) 7(2400m)
Ortszeit Luftdruck NN (hPa) Tendenz (hPa in 3 Std.)
Fr, 07.05. 20:00 1015 + 2,4
Fr, 07.05. 14:00 1011 + 3,7
Fr, 07.05. 8:00 1006 + 1,5
Fr, 07.05. 2:00 1005 - 0,9
Do, 06.05. 20:00 1006 - 0,9
Do, 06.05. 14:00 1007 - 1,1
Do, 06.05. 8:00 1009 + 0,3
Do, 06.05. 2:00 1008 + 0,7
Ortszeit Luftdruck NN (hPa) Tendenz (hPa in 3 Std.)
Sa, 08.05. 1:00 1018 + 0,8
Sa, 08.05. 0:50 1018 keine Meldung
Sa, 08.05. 0:40 1018 keine Meldung
Sa, 08.05. 0:30 1018 + 1,1
Sa, 08.05. 0:20 1018 keine Meldung
Sa, 08.05. 0:10 1018 keine Meldung
Sa, 08.05. 0:00 1018 + 1,4
Fr, 07.05. 23:30 1018 + 1,8
Fr, 07.05. 23:00 1018 + 2,1
Fr, 07.05. 22:30 1018 + 2,4
Fr, 07.05. 22:00 1017 + 2,6
Ortszeit Schneehöhe (cm)
Fr, 07.05. 20:00 0
Fr, 07.05. 14:00 0
Fr, 07.05. 8:00 0
Fr, 07.05. 2:00 0
Do, 06.05. 20:00 0
Do, 06.05. 14:00 0
Do, 06.05. 8:00 0
Do, 06.05. 2:00 0
Ortszeit Schneehöhe (cm)
Sa, 08.05. 1:00 0
Sa, 08.05. 0:50 0
Sa, 08.05. 0:40 0
Sa, 08.05. 0:30 0
Sa, 08.05. 0:20 0
Sa, 08.05. 0:10 0
Sa, 08.05. 0:00 0
Fr, 07.05. 23:30 0
Fr, 07.05. 23:00 0
Fr, 07.05. 22:30 0
Fr, 07.05. 22:00 0
Link zu dieser Seite / Seite empfehlen

Das Wetter in ...